sensor_id;sensor_type;location;lat;lon;timestamp;pressure;altitude;pressure_sealevel;temperature;humidity
61474;BME280;53694;49.784;30.150;2023-05-12T00:00:37;100462.50;;;6.32;61.28
61474;BME280;53694;49.784;30.150;2023-05-12T00:01:39;100468.47;;;6.34;61.01
61474;BME280;53694;49.784;30.150;2023-05-12T00:02:41;100465.73;;;6.34;61.04
61474;BME280;53694;49.784;30.150;2023-05-12T00:03:42;100464.94;;;6.34;59.64
61474;BME280;53694;49.784;30.150;2023-05-12T00:04:43;100471.20;;;6.34;60.33
61474;BME280;53694;49.784;30.150;2023-05-12T00:05:45;100473.92;;;6.34;59.02
61474;BME280;53694;49.784;30.150;2023-05-12T00:06:46;100465.73;;;6.34;58.99
61474;BME280;53694;49.784;30.150;2023-05-12T00:07:48;100470.39;;;6.34;58.67
61474;BME280;53694;49.784;30.150;2023-05-12T00:08:50;100460.28;;;6.34;60.02
61474;BME280;53694;49.784;30.150;2023-05-12T00:09:51;100467.66;;;6.34;60.72
61474;BME280;53694;49.784;30.150;2023-05-12T00:10:53;100473.41;;;6.32;60.05
61474;BME280;53694;49.784;30.150;2023-05-12T00:11:54;100461.70;;;6.32;61.80
61474;BME280;53694;49.784;30.150;2023-05-12T00:12:56;100475.66;;;6.30;62.07
61474;BME280;53694;49.784;30.150;2023-05-12T00:13:58;100475.16;;;6.28;61.13
61474;BME280;53694;49.784;30.150;2023-05-12T00:15:00;100470.02;;;6.26;60.61
61474;BME280;53694;49.784;30.150;2023-05-12T00:16:02;100473.88;;;6.25;60.26
61474;BME280;53694;49.784;30.150;2023-05-12T00:17:04;100470.63;;;6.23;60.76
61474;BME280;53694;49.784;30.150;2023-05-12T00:18:06;100474.48;;;6.22;60.01
61474;BME280;53694;49.784;30.150;2023-05-12T00:19:07;100468.55;;;6.20;59.38
61474;BME280;53694;49.784;30.150;2023-05-12T00:20:10;100474.81;;;6.21;58.72
61474;BME280;53694;49.784;30.150;2023-05-12T00:21:11;100469.64;;;6.19;58.13
61474;BME280;53694;49.784;30.150;2023-05-12T00:22:13;100466.63;;;6.21;57.68
61474;BME280;53694;49.784;30.150;2023-05-12T00:23:14;100469.83;;;6.23;57.33
61474;BME280;53694;49.784;30.150;2023-05-12T00:24:16;100469.03;;;6.22;57.24
61474;BME280;53694;49.784;30.150;2023-05-12T00:25:18;100469.55;;;6.24;56.98
61474;BME280;53694;49.784;30.150;2023-05-12T00:26:19;100474.67;;;6.26;56.45
61474;BME280;53694;49.784;30.150;2023-05-12T00:27:21;100471.63;;;6.28;55.83
61474;BME280;53694;49.784;30.150;2023-05-12T00:28:23;100467.77;;;6.29;55.37
61474;BME280;53694;49.784;30.150;2023-05-12T00:29:24;100471.81;;;6.31;55.14
61474;BME280;53694;49.784;30.150;2023-05-12T00:30:26;100473.41;;;6.32;55.22
61474;BME280;53694;49.784;30.150;2023-05-12T00:31:30;100473.92;;;6.34;55.22
61474;BME280;53694;49.784;30.150;2023-05-12T00:32:32;100471.20;;;6.34;57.06
61474;BME280;53694;49.784;30.150;2023-05-12T00:33:33;100464.94;;;6.34;56.93
61474;BME280;53694;49.784;30.150;2023-05-12T00:34:35;100466.86;;;6.33;59.28
61474;BME280;53694;49.784;30.150;2023-05-12T00:35:36;100471.33;;;6.29;58.19
61474;BME280;53694;49.784;30.150;2023-05-12T00:36:38;100471.33;;;6.29;58.19
61474;BME280;53694;49.784;30.150;2023-05-12T00:37:40;100474.06;;;6.29;58.08
61474;BME280;53694;49.784;30.150;2023-05-12T00:38:42;100472.42;;;6.28;58.15
61474;BME280;53694;49.784;30.150;2023-05-12T00:39:43;100470.82;;;6.27;58.41
61474;BME280;53694;49.784;30.150;2023-05-12T00:40:45;100470.02;;;6.26;58.75
61474;BME280;53694;49.784;30.150;2023-05-12T00:41:46;100473.88;;;6.25;59.02
61474;BME280;53694;49.784;30.150;2023-05-12T00:42:48;100478.81;;;6.23;62.15
61474;BME280;53694;49.784;30.150;2023-05-12T00:43:50;100478.81;;;6.23;62.15
61474;BME280;53694;49.784;30.150;2023-05-12T00:44:51;100473.69;;;6.22;63.28
61474;BME280;53694;49.784;30.150;2023-05-12T00:45:53;100478.63;;;6.20;63.60
61474;BME280;53694;49.784;30.150;2023-05-12T00:46:54;100474.30;;;6.19;63.92
61474;BME280;53694;49.784;30.150;2023-05-12T00:47:56;100476.03;;;6.15;64.81
61474;BME280;53694;49.784;30.150;2023-05-12T00:48:58;100480.20;;;6.12;65.69
61474;BME280;53694;49.784;30.150;2023-05-12T00:50:00;100478.89;;;6.10;66.51
61474;BME280;53694;49.784;30.150;2023-05-12T00:51:03;100482.05;;;6.03;66.71
61474;BME280;53694;49.784;30.150;2023-05-12T00:52:05;100480.25;;;5.98;67.09
61474;BME280;53694;49.784;30.150;2023-05-12T00:53:07;100477.14;;;5.91;67.58
61474;BME280;53694;49.784;30.150;2023-05-12T00:54:09;100482.72;;;5.86;67.37
61474;BME280;53694;49.784;30.150;2023-05-12T00:55:11;100479.28;;;5.81;67.32
61474;BME280;53694;49.784;30.150;2023-05-12T00:56:13;100482.94;;;5.76;65.62
61474;BME280;53694;49.784;30.150;2023-05-12T00:57:14;100480.34;;;5.71;65.07
61474;BME280;53694;49.784;30.150;2023-05-12T00:58:16;100482.55;;;5.69;64.64
61474;BME280;53694;49.784;30.150;2023-05-12T00:59:18;100483.98;;;5.66;63.58
61474;BME280;53694;49.784;30.150;2023-05-12T01:00:19;100481.55;;;5.65;63.36
61474;BME280;53694;49.784;30.150;2023-05-12T01:01:21;100478.34;;;5.63;64.10
61474;BME280;53694;49.784;30.150;2023-05-12T01:02:23;100476.73;;;5.62;63.78
61474;BME280;53694;49.784;30.150;2023-05-12T01:03:25;100478.34;;;5.63;64.29
61474;BME280;53694;49.784;30.150;2023-05-12T01:04:26;100478.95;;;5.60;64.90
61474;BME280;53694;49.784;30.150;2023-05-12T01:05:38;100480.39;;;5.57;64.29
61474;BME280;53694;49.784;30.150;2023-05-12T01:06:47;100481.80;;;5.55;64.45
61474;BME280;53694;49.784;30.150;2023-05-12T01:07:48;100475.86;;;5.53;63.73
61474;BME280;53694;49.784;30.150;2023-05-12T01:08:50;100487.05;;;5.51;63.36
61474;BME280;53694;49.784;30.150;2023-05-12T01:09:54;100486.23;;;5.50;65.10
61474;BME280;53694;49.784;30.150;2023-05-12T01:10:56;100486.05;;;5.47;65.05
61474;BME280;53694;49.784;30.150;2023-05-12T01:11:58;100490.69;;;5.46;66.40
61474;BME280;53694;49.784;30.150;2023-05-12T01:12:59;100486.05;;;5.47;66.80
61474;BME280;53694;49.784;30.150;2023-05-12T01:14:01;100490.20;;;5.44;66.97
61474;BME280;53694;49.784;30.150;2023-05-12T01:15:02;100484.23;;;5.42;67.44
61474;BME280;53694;49.784;30.150;2023-05-12T01:16:06;100485.67;;;5.40;68.23
61474;BME280;53694;49.784;30.150;2023-05-12T01:17:11;100486.28;;;5.37;67.58
61474;BME280;53694;49.784;30.150;2023-05-12T01:18:14;100489.60;;;5.34;67.12
61474;BME280;53694;49.784;30.150;2023-05-12T01:19:31;100486.68;;;5.30;66.42
61474;BME280;53694;49.784;30.150;2023-05-12T01:20:33;100488.91;;;5.28;66.23
61474;BME280;53694;49.784;30.150;2023-05-12T01:21:35;100493.56;;;5.28;68.15
61474;BME280;53694;49.784;30.150;2023-05-12T01:22:37;100496.57;;;5.26;66.27
61474;BME280;53694;49.784;30.150;2023-05-12T01:23:42;100487.91;;;5.24;65.27
61474;BME280;53694;49.784;30.150;2023-05-12T01:24:57;100490.63;;;5.24;67.51
61474;BME280;53694;49.784;30.150;2023-05-12T01:26:09;100489.03;;;5.23;66.99
61474;BME280;53694;49.784;30.150;2023-05-12T01:27:12;100498.28;;;5.22;67.08
61474;BME280;53694;49.784;30.150;2023-05-12T01:28:15;100492.03;;;5.21;68.11
61474;BME280;53694;49.784;30.150;2023-05-12T01:29:18;100493.95;;;5.21;67.81
61474;BME280;53694;49.784;30.150;2023-05-12T01:30:20;100495.08;;;5.20;68.67
61474;BME280;53694;49.784;30.150;2023-05-12T01:31:23;100488.31;;;5.17;67.96
61474;BME280;53694;49.784;30.150;2023-05-12T01:32:25;100488.31;;;5.17;67.96
61474;BME280;53694;49.784;30.150;2023-05-12T01:33:26;100491.34;;;5.16;68.73
61474;BME280;53694;49.784;30.150;2023-05-12T01:34:28;100488.63;;;5.16;69.14
61474;BME280;53694;49.784;30.150;2023-05-12T01:35:30;100490.83;;;5.14;67.27
61474;BME280;53694;49.784;30.150;2023-05-12T01:36:31;100483.29;;;5.11;66.84
61474;BME280;53694;49.784;30.150;2023-05-12T01:37:33;100488.73;;;5.11;67.12
61474;BME280;53694;49.784;30.150;2023-05-12T01:38:35;100485.48;;;5.09;67.05
61474;BME280;53694;49.784;30.150;2023-05-12T01:39:36;100483.08;;;5.07;66.46
61474;BME280;53694;49.784;30.150;2023-05-12T01:40:38;100493.17;;;5.07;65.64
61474;BME280;53694;49.784;30.150;2023-05-12T01:41:40;100487.73;;;5.07;65.18
61474;BME280;53694;49.784;30.150;2023-05-12T01:42:41;100482.28;;;5.07;64.76
61474;BME280;53694;49.784;30.150;2023-05-12T01:43:43;100478.44;;;5.08;64.71
61474;BME280;53694;49.784;30.150;2023-05-12T01:44:45;100480.05;;;5.09;64.65
61474;BME280;53694;49.784;30.150;2023-05-12T01:45:47;100487.09;;;5.10;64.40
61474;BME280;53694;49.784;30.150;2023-05-12T01:46:49;100490.66;;;5.10;64.17
61474;BME280;53694;49.784;30.150;2023-05-12T01:47:50;100475.92;;;5.11;64.15
61474;BME280;53694;49.784;30.150;2023-05-12T01:48:52;100473.20;;;5.11;63.98
61474;BME280;53694;49.784;30.150;2023-05-12T01:49:53;100482.17;;;5.12;63.63
61474;BME280;53694;49.784;30.150;2023-05-12T01:51:00;100478.33;;;5.13;63.04
61474;BME280;53694;49.784;30.150;2023-05-12T01:52:02;100481.85;;;5.13;62.95
61474;BME280;53694;49.784;30.150;2023-05-12T01:53:03;100481.26;;;5.16;63.20
61474;BME280;53694;49.784;30.150;2023-05-12T01:54:05;100482.06;;;5.17;63.88
61474;BME280;53694;49.784;30.150;2023-05-12T01:55:07;100485.90;;;5.16;65.71
61474;BME280;53694;49.784;30.150;2023-05-12T01:56:08;100485.09;;;5.15;67.18
61474;BME280;53694;49.784;30.150;2023-05-12T01:57:10;100481.57;;;5.15;67.79
61474;BME280;53694;49.784;30.150;2023-05-12T01:58:12;100482.17;;;5.12;68.46
61474;BME280;53694;49.784;30.150;2023-05-12T01:59:13;100474.60;;;5.09;67.82
61474;BME280;53694;49.784;30.150;2023-05-12T02:00:15;100477.64;;;5.07;68.78
61474;BME280;53694;49.784;30.150;2023-05-12T02:01:17;100491.56;;;5.06;69.41
61474;BME280;53694;49.784;30.150;2023-05-12T02:02:18;100487.52;;;5.03;70.01
61474;BME280;53694;49.784;30.150;2023-05-12T02:03:20;100484.91;;;4.98;70.49
61474;BME280;53694;49.784;30.150;2023-05-12T02:04:22;100483.09;;;4.93;71.04
61474;BME280;53694;49.784;30.150;2023-05-12T02:05:23;100478.66;;;4.97;71.45
61474;BME280;53694;49.784;30.150;2023-05-12T02:06:25;100488.63;;;5.16;71.49
61474;BME280;53694;49.784;30.150;2023-05-12T02:07:27;100486.84;;;5.47;71.15
61474;BME280;53694;49.784;30.150;2023-05-12T02:08:28;100485.73;;;5.85;70.52
61474;BME280;53694;49.784;30.150;2023-05-12T02:09:30;100483.34;;;6.28;69.73
61474;BME280;53694;49.784;30.150;2023-05-12T02:10:32;100485.67;;;6.74;67.35
61474;BME280;53694;49.784;30.150;2023-05-12T02:11:33;100482.78;;;7.19;65.36
61474;BME280;53694;49.784;30.150;2023-05-12T02:12:35;100487.97;;;7.56;64.09
61474;BME280;53694;49.784;30.150;2023-05-12T02:13:36;100485.25;;;7.73;61.29
61474;BME280;53694;49.784;30.150;2023-05-12T02:14:38;100485.75;;;7.75;59.92
61474;BME280;53694;49.784;30.150;2023-05-12T02:15:40;100483.81;;;7.67;61.49
61474;BME280;53694;49.784;30.150;2023-05-12T02:16:41;100488.63;;;7.53;61.04
61474;BME280;53694;49.784;30.150;2023-05-12T02:17:43;100484.58;;;7.33;61.68
61474;BME280;53694;49.784;30.150;2023-05-12T02:18:45;100491.75;;;7.11;62.45
61474;BME280;53694;49.784;30.150;2023-05-12T02:19:46;100495.38;;;6.89;63.40
61474;BME280;53694;49.784;30.150;2023-05-12T02:20:48;100488.06;;;6.67;64.26
61474;BME280;53694;49.784;30.150;2023-05-12T02:21:50;100497.59;;;6.47;65.20
61474;BME280;53694;49.784;30.150;2023-05-12T02:22:52;100492.32;;;6.29;66.19
61474;BME280;53694;49.784;30.150;2023-05-12T02:23:53;100492.72;;;6.13;67.00
61474;BME280;53694;49.784;30.150;2023-05-12T02:24:55;100495.00;;;5.97;67.61
61474;BME280;53694;49.784;30.150;2023-05-12T02:25:57;100500.48;;;5.84;68.03
61474;BME280;53694;49.784;30.150;2023-05-12T02:26:58;100493.16;;;5.70;65.50
61474;BME280;53694;49.784;30.150;2023-05-12T02:28:00;100502.98;;;5.58;63.48
61474;BME280;53694;49.784;30.150;2023-05-12T02:29:01;100496.66;;;5.48;62.36
61474;BME280;53694;49.784;30.150;2023-05-12T02:30:04;100503.31;;;5.42;61.80
61474;BME280;53694;49.784;30.150;2023-05-12T02:31:06;100494.77;;;5.35;61.17
61474;BME280;53694;49.784;30.150;2023-05-12T02:32:07;100493.77;;;5.31;60.73
61474;BME280;53694;49.784;30.150;2023-05-12T02:33:09;100490.52;;;5.29;60.29
61474;BME280;53694;49.784;30.150;2023-05-12T02:34:10;100497.38;;;5.26;59.64
61474;BME280;53694;49.784;30.150;2023-05-12T02:35:12;100495.77;;;5.25;59.38
61474;BME280;53694;49.784;30.150;2023-05-12T02:36:14;100496.57;;;5.26;59.23
61474;BME280;53694;49.784;30.150;2023-05-12T02:37:15;100502.02;;;5.26;59.01
61474;BME280;53694;49.784;30.150;2023-05-12T02:38:17;100497.38;;;5.26;58.92
61474;BME280;53694;49.784;30.150;2023-05-12T02:39:19;100495.48;;;5.27;58.76
61474;BME280;53694;49.784;30.150;2023-05-12T02:40:20;100495.48;;;5.27;59.62
61474;BME280;53694;49.784;30.150;2023-05-12T02:41:22;100502.22;;;5.30;59.60
61474;BME280;53694;49.784;30.150;2023-05-12T02:42:24;100497.58;;;5.30;59.40
61474;BME280;53694;49.784;30.150;2023-05-12T02:43:25;100493.77;;;5.31;60.50
61474;BME280;53694;49.784;30.150;2023-05-12T02:44:27;100493.77;;;5.31;59.64
61474;BME280;53694;49.784;30.150;2023-05-12T02:45:29;100501.62;;;5.33;58.68
61474;BME280;53694;49.784;30.150;2023-05-12T02:46:31;100498.58;;;5.34;58.19
61474;BME280;53694;49.784;30.150;2023-05-12T02:47:32;100501.81;;;5.36;58.09
61474;BME280;53694;49.784;30.150;2023-05-12T02:48:34;100500.70;;;5.37;57.99
61474;BME280;53694;49.784;30.150;2023-05-12T02:49:35;100495.73;;;5.39;58.07
61474;BME280;53694;49.784;30.150;2023-05-12T02:50:37;100497.86;;;5.42;58.41
61474;BME280;53694;49.784;30.150;2023-05-12T02:51:39;100499.17;;;5.45;58.27
61474;BME280;53694;49.784;30.150;2023-05-12T02:52:40;100503.19;;;5.47;58.07
61474;BME280;53694;49.784;30.150;2023-05-12T02:53:42;100504.19;;;5.51;57.76
61474;BME280;53694;49.784;30.150;2023-05-12T02:54:44;100498.14;;;5.55;57.81
61474;BME280;53694;49.784;30.150;2023-05-12T02:55:45;100499.94;;;5.59;57.42
61474;BME280;53694;49.784;30.150;2023-05-12T02:56:47;100498.53;;;5.62;57.49
61474;BME280;53694;49.784;30.150;2023-05-12T02:57:49;100494.37;;;5.64;57.05
61474;BME280;53694;49.784;30.150;2023-05-12T02:58:50;100494.09;;;5.66;56.78
61474;BME280;53694;49.784;30.150;2023-05-12T02:59:52;100494.57;;;5.68;56.77
61474;BME280;53694;49.784;30.150;2023-05-12T03:00:54;100499.41;;;5.71;56.75
61474;BME280;53694;49.784;30.150;2023-05-12T03:01:55;100492.84;;;5.72;57.03
61474;BME280;53694;49.784;30.150;2023-05-12T03:02:57;100494.45;;;5.73;56.78
61474;BME280;53694;49.784;30.150;2023-05-12T03:03:58;100494.45;;;5.73;56.53
61474;BME280;53694;49.784;30.150;2023-05-12T03:05:00;100501.53;;;5.74;56.23
61474;BME280;53694;49.784;30.150;2023-05-12T03:06:02;100495.77;;;5.75;56.25
61474;BME280;53694;49.784;30.150;2023-05-12T03:07:04;100500.09;;;5.76;56.20
61474;BME280;53694;49.784;30.150;2023-05-12T03:08:06;100498.17;;;5.77;56.26
61474;BME280;53694;49.784;30.150;2023-05-12T03:09:07;100495.45;;;5.77;56.22
61474;BME280;53694;49.784;30.150;2023-05-12T03:10:09;100502.82;;;5.76;56.34
61474;BME280;53694;49.784;30.150;2023-05-12T03:11:11;100500.09;;;5.76;56.43
61474;BME280;53694;49.784;30.150;2023-05-12T03:12:13;100501.70;;;5.77;56.74
61474;BME280;53694;49.784;30.150;2023-05-12T03:13:14;100501.70;;;5.77;56.66
61474;BME280;53694;49.784;30.150;2023-05-12T03:14:16;100504.42;;;5.77;56.73
61474;BME280;53694;49.784;30.150;2023-05-12T03:15:17;100512.60;;;5.77;56.53
61474;BME280;53694;49.784;30.150;2023-05-12T03:16:19;100497.37;;;5.76;56.43
61474;BME280;53694;49.784;30.150;2023-05-12T03:17:21;100505.26;;;5.78;56.54
61474;BME280;53694;49.784;30.150;2023-05-12T03:18:22;100504.14;;;5.79;56.50
61474;BME280;53694;49.784;30.150;2023-05-12T03:19:24;100504.94;;;5.80;56.38
61474;BME280;53694;49.784;30.150;2023-05-12T03:20:26;100508.47;;;5.80;56.21
61474;BME280;53694;49.784;30.150;2023-05-12T03:21:27;100503.53;;;5.82;56.06
61474;BME280;53694;49.784;30.150;2023-05-12T03:22:29;100510.59;;;5.83;56.26
61474;BME280;53694;49.784;30.150;2023-05-12T03:23:31;100505.14;;;5.83;56.18
61474;BME280;53694;49.784;30.150;2023-05-12T03:24:33;100504.02;;;5.84;56.33
61474;BME280;53694;49.784;30.150;2023-05-12T03:25:34;100508.34;;;5.85;56.46
61474;BME280;53694;49.784;30.150;2023-05-12T03:26:36;100505.62;;;5.85;56.86
61474;BME280;53694;49.784;30.150;2023-05-12T03:27:38;100511.58;;;5.87;57.02
61474;BME280;53694;49.784;30.150;2023-05-12T03:28:40;100511.58;;;5.87;57.35
61474;BME280;53694;49.784;30.150;2023-05-12T03:29:41;100512.38;;;5.88;57.35
61474;BME280;53694;49.784;30.150;2023-05-12T03:30:43;100506.42;;;5.86;57.15
61474;BME280;53694;49.784;30.150;2023-05-12T03:31:44;100509.98;;;5.86;57.05
61474;BME280;53694;49.784;30.150;2023-05-12T03:32:46;100511.07;;;5.85;57.24
61474;BME280;53694;49.784;30.150;2023-05-12T03:33:48;100517.64;;;5.84;56.98
61474;BME280;53694;49.784;30.150;2023-05-12T03:34:49;100513.80;;;5.85;57.07
61474;BME280;53694;49.784;30.150;2023-05-12T03:35:51;100511.39;;;5.84;57.36
61474;BME280;53694;49.784;30.150;2023-05-12T03:36:53;100510.59;;;5.83;57.24
61474;BME280;53694;49.784;30.150;2023-05-12T03:37:54;100509.78;;;5.83;57.16
61474;BME280;53694;49.784;30.150;2023-05-12T03:38:56;100513.31;;;5.83;57.32
61474;BME280;53694;49.784;30.150;2023-05-12T03:39:57;100514.44;;;5.82;57.05
61474;BME280;53694;49.784;30.150;2023-05-12T03:41:03;100511.19;;;5.80;57.25
61474;BME280;53694;49.784;30.150;2023-05-12T03:42:05;100511.19;;;5.80;56.80
61474;BME280;53694;49.784;30.150;2023-05-12T03:43:07;100513.12;;;5.80;56.52
61474;BME280;53694;49.784;30.150;2023-05-12T03:44:08;100505.26;;;5.78;56.46
61474;BME280;53694;49.784;30.150;2023-05-12T03:45:10;100516.64;;;5.80;56.21
61474;BME280;53694;49.784;30.150;2023-05-12T03:46:12;100520.49;;;5.79;56.51
61474;BME280;53694;49.784;30.150;2023-05-12T03:47:14;100517.16;;;5.82;56.58
61474;BME280;53694;49.784;30.150;2023-05-12T03:48:15;100510.59;;;5.83;56.50
61474;BME280;53694;49.784;30.150;2023-05-12T03:49:17;100512.70;;;5.86;57.01
61474;BME280;53694;49.784;30.150;2023-05-12T03:50:19;100511.58;;;5.87;57.00
61474;BME280;53694;49.784;30.150;2023-05-12T03:51:20;100516.39;;;5.90;57.06
61474;BME280;53694;49.784;30.150;2023-05-12T03:52:22;100507.96;;;5.92;56.86
61474;BME280;53694;49.784;30.150;2023-05-12T03:53:23;100524.52;;;5.95;56.68
61474;BME280;53694;49.784;30.150;2023-05-12T03:54:25;100514.41;;;5.96;56.77
61474;BME280;53694;49.784;30.150;2023-05-12T03:55:27;100509.95;;;6.00;57.08
61474;BME280;53694;49.784;30.150;2023-05-12T03:56:28;100509.62;;;6.01;57.67
61474;BME280;53694;49.784;30.150;2023-05-12T03:57:30;100517.20;;;6.05;57.90
61474;BME280;53694;49.784;30.150;2023-05-12T03:58:32;100511.14;;;6.08;58.07
61474;BME280;53694;49.784;30.150;2023-05-12T03:59:33;100517.08;;;6.10;58.20
61474;BME280;53694;49.784;30.150;2023-05-12T04:00:35;100516.47;;;6.13;58.27
61474;BME280;53694;49.784;30.150;2023-05-12T04:01:37;100514.22;;;6.15;58.04
61474;BME280;53694;49.784;30.150;2023-05-12T04:02:38;100515.53;;;6.17;58.34
61474;BME280;53694;49.784;30.150;2023-05-12T04:03:40;100515.72;;;6.21;58.42
61474;BME280;53694;49.784;30.150;2023-05-12T04:04:42;100518.13;;;6.22;58.53
61474;BME280;53694;49.784;30.150;2023-05-12T04:05:43;100510.13;;;6.26;58.69
61474;BME280;53694;49.784;30.150;2023-05-12T04:06:45;100517.20;;;6.27;58.47
61474;BME280;53694;49.784;30.150;2023-05-12T04:07:46;100517.70;;;6.29;58.77
61474;BME280;53694;49.784;30.150;2023-05-12T04:08:48;100519.31;;;6.30;59.15
61474;BME280;53694;49.784;30.150;2023-05-12T04:09:50;100505.34;;;6.32;59.06
61474;BME280;53694;49.784;30.150;2023-05-12T04:10:56;100511.31;;;6.34;58.98
61474;BME280;53694;49.784;30.150;2023-05-12T04:11:58;100513.39;;;6.37;59.24
61474;BME280;53694;49.784;30.150;2023-05-12T04:13:00;100508.13;;;6.40;59.25
61474;BME280;53694;49.784;30.150;2023-05-12T04:14:02;100515.70;;;6.43;59.18
61474;BME280;53694;49.784;30.150;2023-05-12T04:15:04;100516.18;;;6.45;59.35
61474;BME280;53694;49.784;30.150;2023-05-12T04:16:06;100515.56;;;6.48;59.27
61474;BME280;53694;49.784;30.150;2023-05-12T04:17:07;100510.30;;;6.52;59.26
61474;BME280;53694;49.784;30.150;2023-05-12T04:18:09;100510.48;;;6.56;59.40
61474;BME280;53694;49.784;30.150;2023-05-12T04:19:11;100518.05;;;6.59;59.39
61474;BME280;53694;49.784;30.150;2023-05-12T04:20:12;100518.20;;;6.62;59.22
61474;BME280;53694;49.784;30.150;2023-05-12T04:21:14;100523.05;;;6.65;59.36
61474;BME280;53694;49.784;30.150;2023-05-12T04:22:16;100526.44;;;6.71;59.24
61474;BME280;53694;49.784;30.150;2023-05-12T04:23:17;100524.69;;;6.75;59.18
61474;BME280;53694;49.784;30.150;2023-05-12T04:24:19;100514.75;;;6.79;59.28
61474;BME280;53694;49.784;30.150;2023-05-12T04:25:20;100517.38;;;6.84;59.34
61474;BME280;53694;49.784;30.150;2023-05-12T04:26:22;100513.70;;;6.89;59.31
61474;BME280;53694;49.784;30.150;2023-05-12T04:27:24;100522.54;;;6.94;59.33
61474;BME280;53694;49.784;30.150;2023-05-12T04:28:25;100516.13;;;6.99;59.42
61474;BME280;53694;49.784;30.150;2023-05-12T04:29:27;100516.78;;;7.05;59.37
61474;BME280;53694;49.784;30.150;2023-05-12T04:30:29;100520.20;;;7.10;59.17
61474;BME280;53694;49.784;30.150;2023-05-12T04:31:30;100520.85;;;7.16;58.73
61474;BME280;53694;49.784;30.150;2023-05-12T04:32:32;100524.23;;;7.21;58.69
61474;BME280;53694;49.784;30.150;2023-05-12T04:33:33;100520.88;;;7.24;58.75
61474;BME280;53694;49.784;30.150;2023-05-12T04:34:35;100521.52;;;7.30;58.43
61474;BME280;53694;49.784;30.150;2023-05-12T04:35:37;100518.16;;;7.33;58.14
61474;BME280;53694;49.784;30.150;2023-05-12T04:36:38;100516.08;;;7.39;58.11
61474;BME280;53694;49.784;30.150;2023-05-12T04:37:40;100522.52;;;7.43;58.07
61474;BME280;53694;49.784;30.150;2023-05-12T04:38:42;100518.83;;;7.47;58.07
61474;BME280;53694;49.784;30.150;2023-05-12T04:39:43;100519.80;;;7.51;57.94
61474;BME280;53694;49.784;30.150;2023-05-12T04:40:45;100521.61;;;7.56;57.46
61474;BME280;53694;49.784;30.150;2023-05-12T04:41:47;100523.38;;;7.61;57.09
61474;BME280;53694;49.784;30.150;2023-05-12T04:42:48;100518.88;;;7.65;56.56
61474;BME280;53694;49.784;30.150;2023-05-12T04:43:50;100525.80;;;7.71;56.47
61474;BME280;53694;49.784;30.150;2023-05-12T04:44:51;100528.06;;;7.78;56.45
61474;BME280;53694;49.784;30.150;2023-05-12T04:45:53;100525.17;;;7.83;56.43
61474;BME280;53694;49.784;30.150;2023-05-12T04:46:55;100521.47;;;7.87;56.12
61474;BME280;53694;49.784;30.150;2023-05-12T04:47:56;100517.44;;;7.93;56.08
61474;BME280;53694;49.784;30.150;2023-05-12T04:48:58;100521.94;;;7.98;56.06
61474;BME280;53694;49.784;30.150;2023-05-12T04:49:59;100512.76;;;8.02;55.82
61474;BME280;53694;49.784;30.150;2023-05-12T04:51:01;100518.09;;;8.08;55.74
61474;BME280;53694;49.784;30.150;2023-05-12T04:52:03;100521.13;;;8.15;55.61
61474;BME280;53694;49.784;30.150;2023-05-12T04:53:05;100522.89;;;8.19;55.46
61474;BME280;53694;49.784;30.150;2023-05-12T04:54:09;100528.22;;;8.24;55.47
61474;BME280;53694;49.784;30.150;2023-05-12T04:55:11;100515.16;;;8.30;55.37
61474;BME280;53694;49.784;30.150;2023-05-12T04:56:13;100522.06;;;8.36;55.10
61474;BME280;53694;49.784;30.150;2023-05-12T04:57:15;100520.02;;;8.42;55.06
61474;BME280;53694;49.784;30.150;2023-05-12T04:58:16;100518.70;;;8.48;55.11
61474;BME280;53694;49.784;30.150;2023-05-12T04:59:18;100522.05;;;8.54;55.10
61474;BME280;53694;49.784;30.150;2023-05-12T05:00:20;100521.91;;;8.59;55.05
61474;BME280;53694;49.784;30.150;2023-05-12T05:01:21;100515.11;;;8.65;54.86
61474;BME280;53694;49.784;30.150;2023-05-12T05:02:23;100524.78;;;8.71;54.81
61474;BME280;53694;49.784;30.150;2023-05-12T05:03:25;100516.04;;;8.78;54.72
61474;BME280;53694;49.784;30.150;2023-05-12T05:04:26;100524.07;;;8.83;54.68
61474;BME280;53694;49.784;30.150;2023-05-12T05:05:28;100519.23;;;8.88;54.57
61474;BME280;53694;49.784;30.150;2023-05-12T05:06:30;100519.05;;;8.93;54.00
61474;BME280;53694;49.784;30.150;2023-05-12T05:07:31;100525.94;;;8.99;53.85
61474;BME280;53694;49.784;30.150;2023-05-12T05:08:33;100524.30;;;9.07;53.61
61474;BME280;53694;49.784;30.150;2023-05-12T05:09:35;100515.58;;;9.14;53.24
61474;BME280;53694;49.784;30.150;2023-05-12T05:10:36;100516.98;;;9.20;52.90
61474;BME280;53694;49.784;30.150;2023-05-12T05:11:38;100520.67;;;9.24;52.78
61474;BME280;53694;49.784;30.150;2023-05-12T05:12:40;100522.08;;;9.30;52.87
61474;BME280;53694;49.784;30.150;2023-05-12T05:13:41;100522.38;;;9.37;52.82
61474;BME280;53694;49.784;30.150;2023-05-12T05:14:43;100523.80;;;9.43;52.64
61474;BME280;53694;49.784;30.150;2023-05-12T05:15:54;100516.52;;;9.47;51.97
61474;BME280;53694;49.784;30.150;2023-05-12T05:16:55;100524.55;;;9.53;51.33
61474;BME280;53694;49.784;30.150;2023-05-12T05:17:57;100521.27;;;9.59;50.04
61474;BME280;53694;49.784;30.150;2023-05-12T05:18:59;100522.21;;;9.63;49.14
61474;BME280;53694;49.784;30.150;2023-05-12T05:20:00;100519.75;;;9.70;48.52
61474;BME280;53694;49.784;30.150;2023-05-12T05:21:02;100521.97;;;9.77;48.30
61474;BME280;53694;49.784;30.150;2023-05-12T05:22:04;100521.42;;;9.84;47.89
61474;BME280;53694;49.784;30.150;2023-05-12T05:23:05;100519.75;;;9.91;47.86
61474;BME280;53694;49.784;30.150;2023-05-12T05:24:07;100516.94;;;10.00;47.80